TFM - Tactical Decision Aid
ID: Runway Winds: CIG/VIS Threshold:

KCVG - Cincinnati Intl, KY, US

Updated at: 1248 UTC 15 Jul 2020
Latest TAF at: 1120 UTC 15 Jul 2020

TAF Board

Time1152Z 15/13Z 15/14Z 15/15Z 15/16Z 15/17Z 15/18Z 15/19Z 15/20Z 15/21Z 15/22Z 15/23Z 16/00Z 16/01Z>>
Type OBS PRVL PRVL PRVL PRVL PRVL PRVL PRVL PRVL PRVL PRVL PRVL PRVL PRVL
VIS 9 >6 >6 >6 >6 >6 >6 >6 >6 >6 >6 >6 >6 >6
CIG -- -- -- -- -- -- -- -- -- -- -- -- -- --
Cover FEW SCT SCT SCT SCT SCT SCT SCT SCT SCT SCT SCT SCT SCT
FltCat VFR VFR VFR VFR VFR VFR VFR VFR VFR VFR VFR VFR VFR VFR
WX -- -- -- -- -- -- -- -- -- -- -- -- -- --
WDir VRB 120 120 180 180 180 180 180 180 180 180 180 180 180
WSpd 0 4 4 6 6 6 6 6 6 6 6 6 6 6
WGst -- -- -- -- -- -- -- -- -- -- -- -- -- --

TDA Impact Legend

  None Marginal Slight Moderate High
Visibility (sm) >5 3≤X≤5 1≤X<3 0.5≤X<1 <0.5
Ceiling (100 ft) >30 10≤X≤30 4≤X<10 2≤X<4 <2
Wind Speed (kt) <15 15≤X<25 25≤X<30 ≥30
Wind Gust (kt) <15 15≤X<25 25≤X<35 ≥35
Weather No Wx Reported VCTS -TS,-FZRA TS,FZRA +TS,+FZRA
TAF
KCVG 151120Z 1512/1618 12004KT P6SM SCT250
  FM151500 18006KT P6SM SCT250
  FM160500 16006KT P6SM SCT150 OVC250
  FM161100 17005KT P6SM SCT040 BKN150
  FM161700 22006KT P6SM BKN120


METAR
KCVG 151152Z 00000KT 9SM FEW300 22/18 A3009 RMK AO2 SLP177 T02220178 10244 20183 53008
KCVG 151052Z 17005KT 10SM SCT250 20/17 A3007 RMK AO2 SLP173 T02000167
KCVG 150952Z 15004KT 10SM FEW250 18/16 A3007 RMK AO2 SLP171 T01830156

Radar Display
Forecast Discussion